createdAt,value
2023-02-03T00:01:01.864Z,10.48
2023-02-03T00:03:29.794Z,11.77
2023-02-03T00:05:57.945Z,11.57
2023-02-03T00:08:25.894Z,11.75
2023-02-03T00:10:54.629Z,11.93
2023-02-03T00:13:23.216Z,11.38
2023-02-03T00:15:52.584Z,11.20
2023-02-03T00:18:20.695Z,10.55
2023-02-03T00:20:48.885Z,10.23
2023-02-03T00:23:16.886Z,9.40
2023-02-03T00:25:44.856Z,9.75
2023-02-03T00:28:12.908Z,9.25
2023-02-03T00:30:40.714Z,9.45
2023-02-03T00:33:10.235Z,10.10
2023-02-03T00:35:40.281Z,9.43
2023-02-03T00:38:08.174Z,9.70
2023-02-03T00:40:36.178Z,9.43
2023-02-03T00:43:04.506Z,10.05
2023-02-03T00:45:33.128Z,8.90
2023-02-03T00:48:01.161Z,9.85
2023-02-03T00:50:30.593Z,9.05
2023-02-03T00:52:58.535Z,9.20
2023-02-03T00:55:27.104Z,9.77
2023-02-03T00:57:55.186Z,9.30
2023-02-03T01:00:23.276Z,10.52
2023-02-03T01:02:51.347Z,9.73
2023-02-03T01:05:19.305Z,8.88
2023-02-03T01:07:48.725Z,9.05
2023-02-03T01:10:17.257Z,8.27
2023-02-03T01:12:45.154Z,7.50
2023-02-03T01:15:13.168Z,7.95
2023-02-03T01:17:41.115Z,7.22
2023-02-03T01:20:12.575Z,7.35
2023-02-03T01:22:41.105Z,7.03
2023-02-03T01:25:11.007Z,7.85
2023-02-03T01:27:38.961Z,7.50
2023-02-03T01:30:07.420Z,8.95
2023-02-03T01:32:35.526Z,8.48
2023-02-03T01:35:05.856Z,8.27
2023-02-03T01:37:34.037Z,8.40
2023-02-03T01:40:02.424Z,9.13
2023-02-03T01:42:34.297Z,9.88
2023-02-03T01:45:02.702Z,10.43
2023-02-03T01:47:34.072Z,9.70
2023-02-03T01:50:11.919Z,8.27
2023-02-03T01:52:42.517Z,7.72
2023-02-03T01:55:14.837Z,8.05
2023-02-03T01:57:48.099Z,7.68
2023-02-03T02:00:17.111Z,7.97
2023-02-03T02:02:48.117Z,7.75
2023-02-03T02:05:23.143Z,7.55
2023-02-03T02:07:52.083Z,7.35
2023-02-03T02:10:20.502Z,7.45
2023-02-03T02:12:50.875Z,7.47
2023-02-03T02:15:24.971Z,8.02
2023-02-03T02:18:07.916Z,7.70
2023-02-03T02:21:03.246Z,7.63
2023-02-03T02:23:45.407Z,8.57
2023-02-03T02:26:39.279Z,9.57
2023-02-03T02:29:44.494Z,9.77
2023-02-03T02:32:31.360Z,8.40
2023-02-03T02:35:07.709Z,8.98
2023-02-03T02:37:48.757Z,9.00
2023-02-03T02:40:26.761Z,9.38
2023-02-03T02:43:02.949Z,8.93
2023-02-03T02:45:41.758Z,8.60
2023-02-03T02:48:20.229Z,8.88
2023-02-03T02:50:53.265Z,8.90
2023-02-03T02:53:24.578Z,10.13
2023-02-03T02:55:57.552Z,8.90
2023-02-03T02:58:27.304Z,9.13
2023-02-03T03:00:56.418Z,8.93
2023-02-03T03:03:26.207Z,8.45
2023-02-03T03:05:57.399Z,7.68
2023-02-03T03:08:34.029Z,7.75
2023-02-03T03:11:03.768Z,8.23
2023-02-03T03:13:35.019Z,8.73
2023-02-03T03:16:06.436Z,9.10
2023-02-03T03:18:43.861Z,9.20
2023-02-03T03:23:47.463Z,8.90
2023-02-03T03:26:21.293Z,8.90
2023-02-03T03:28:53.153Z,9.75
2023-02-03T03:31:21.976Z,9.23
2023-02-03T03:33:51.818Z,9.63
2023-02-03T03:36:26.763Z,9.75
2023-02-03T03:39:00.369Z,10.35
2023-02-03T03:41:37.251Z,10.15
2023-02-03T03:44:09.986Z,10.82
2023-02-03T03:46:44.543Z,10.82
2023-02-03T03:49:16.106Z,9.90
2023-02-03T03:51:48.599Z,11.00
2023-02-03T03:54:20.938Z,10.30
2023-02-03T03:56:59.040Z,9.60
2023-02-03T03:59:31.164Z,9.73
2023-02-03T04:02:05.261Z,9.95
2023-02-03T04:04:38.003Z,10.10
2023-02-03T04:07:06.527Z,10.35
2023-02-03T04:09:37.406Z,10.45
2023-02-03T04:12:07.026Z,10.25
2023-02-03T04:14:40.309Z,9.73
2023-02-03T04:17:09.334Z,11.25
2023-02-03T04:19:39.078Z,10.35
2023-02-03T04:22:07.479Z,11.02
2023-02-03T04:24:35.780Z,10.98
2023-02-03T04:27:05.443Z,9.77
2023-02-03T04:29:33.884Z,11.23
2023-02-03T04:32:02.517Z,11.05
2023-02-03T04:34:30.926Z,11.05
2023-02-03T04:37:00.685Z,11.50
2023-02-03T04:39:29.179Z,11.55
2023-02-03T04:41:57.439Z,10.77
2023-02-03T04:44:25.935Z,9.23
2023-02-03T04:46:54.322Z,9.75
2023-02-03T04:49:22.623Z,9.77
2023-02-03T04:51:51.087Z,10.35
2023-02-03T04:54:21.132Z,9.15
2023-02-03T04:56:49.562Z,9.98
2023-02-03T04:59:17.772Z,9.85
2023-02-03T05:01:46.272Z,9.20
2023-02-03T05:04:14.697Z,9.13
2023-02-03T05:06:43.104Z,9.95
2023-02-03T05:09:11.772Z,9.50
2023-02-03T05:11:41.992Z,9.65
2023-02-03T05:14:10.598Z,9.25
2023-02-03T05:16:39.117Z,9.38
2023-02-03T05:19:07.621Z,9.02
2023-02-03T05:21:36.025Z,9.68
2023-02-03T05:24:07.452Z,8.50
2023-02-03T05:26:37.041Z,9.18
2023-02-03T05:29:07.265Z,8.65
2023-02-03T05:31:35.904Z,8.75
2023-02-03T05:34:04.333Z,8.85
2023-02-03T05:36:32.922Z,8.23
2023-02-03T05:39:01.343Z,9.25
2023-02-03T05:41:48.254Z,9.18
2023-02-03T05:44:18.079Z,9.98
2023-02-03T05:46:46.417Z,8.68
2023-02-03T05:49:14.760Z,9.77
2023-02-03T05:51:43.181Z,9.15
2023-02-03T05:54:11.670Z,9.57
2023-02-03T05:56:39.972Z,8.68
2023-02-03T05:59:08.790Z,8.60
2023-02-03T06:01:38.636Z,8.63
2023-02-03T06:04:07.255Z,8.23
2023-02-03T06:06:36.160Z,8.27
2023-02-03T06:09:06.711Z,8.77
2023-02-03T06:11:36.394Z,8.38
2023-02-03T06:14:05.190Z,8.80
2023-02-03T06:16:33.573Z,8.45
2023-02-03T06:19:05.163Z,8.70
2023-02-03T06:21:33.506Z,8.85
2023-02-03T06:24:01.645Z,8.70
2023-02-03T06:26:30.054Z,7.93
2023-02-03T06:28:58.596Z,8.45
2023-02-03T06:31:27.042Z,8.98
2023-02-03T06:33:57.602Z,8.20
2023-02-03T06:36:27.492Z,8.43
2023-02-03T06:38:55.674Z,7.70
2023-02-03T06:41:28.026Z,7.95
2023-02-03T06:43:56.390Z,7.68
2023-02-03T06:46:28.689Z,9.25
2023-02-03T06:48:57.033Z,8.77
2023-02-03T06:51:26.744Z,9.70
2023-02-03T06:53:55.002Z,9.60
2023-02-03T06:56:23.230Z,9.38
2023-02-03T06:58:51.650Z,8.77
2023-02-03T07:01:19.756Z,8.95
2023-02-03T07:03:48.112Z,10.00
2023-02-03T07:06:16.494Z,9.35
2023-02-03T07:08:46.556Z,9.77
2023-02-03T07:11:14.787Z,10.40
2023-02-03T07:13:42.990Z,9.68
2023-02-03T07:16:11.358Z,10.25
2023-02-03T07:18:48.063Z,10.10
2023-02-03T07:21:17.756Z,10.27
2023-02-03T07:23:50.233Z,11.10
2023-02-03T07:26:19.423Z,10.75
2023-02-03T07:28:47.552Z,11.70
2023-02-03T07:31:16.016Z,11.32
2023-02-03T07:33:44.432Z,12.18
2023-02-03T07:36:12.688Z,12.73
2023-02-03T07:38:40.869Z,11.75
2023-02-03T07:41:11.750Z,12.52
2023-02-03T07:43:40.024Z,11.57
2023-02-03T07:46:10.077Z,11.95
2023-02-03T07:48:38.510Z,10.50
2023-02-03T07:51:07.163Z,9.90
2023-02-03T07:53:35.346Z,9.25
2023-02-03T07:56:04.707Z,10.05
2023-02-03T07:58:34.754Z,10.05
2023-02-03T08:01:09.711Z,9.32
2023-02-03T08:03:37.892Z,9.13
2023-02-03T08:06:06.590Z,8.88
2023-02-03T08:08:34.852Z,8.52
2023-02-03T08:11:03.462Z,7.72
2023-02-03T08:13:31.662Z,8.32
2023-02-03T08:16:01.483Z,7.13
2023-02-03T08:18:32.490Z,7.97
2023-02-03T08:21:01.168Z,7.93
2023-02-03T08:23:29.474Z,7.32
2023-02-03T08:25:57.572Z,7.18
2023-02-03T08:28:25.952Z,9.02
2023-02-03T08:30:54.313Z,8.27
2023-02-03T08:33:24.180Z,7.10
2023-02-03T08:35:52.299Z,7.45
2023-02-03T08:38:22.296Z,7.10
2023-02-03T08:40:50.510Z,6.80
2023-02-03T08:43:18.759Z,7.13
2023-02-03T08:45:47.052Z,6.50
2023-02-03T08:48:15.202Z,7.30
2023-02-03T08:50:52.335Z,7.50
2023-02-03T08:53:20.782Z,8.00
2023-02-03T08:55:48.911Z,8.20
2023-02-03T08:58:17.354Z,8.10
2023-02-03T09:00:45.809Z,8.68
2023-02-03T09:03:14.210Z,10.05
2023-02-03T09:05:43.943Z,10.23
2023-02-03T09:08:12.232Z,10.55
2023-02-03T09:10:40.451Z,10.18
2023-02-03T09:13:08.660Z,10.00
2023-02-03T09:15:37.431Z,10.15
2023-02-03T09:18:05.861Z,9.63
2023-02-03T09:20:34.141Z,10.05
2023-02-03T09:23:04.421Z,9.25
2023-02-03T09:25:33.215Z,10.05
2023-02-03T09:28:03.247Z,10.00
2023-02-03T09:30:32.046Z,9.45
2023-02-03T09:33:00.515Z,8.40
2023-02-03T09:35:30.440Z,8.20
2023-02-03T09:38:01.229Z,8.20
2023-02-03T09:40:34.334Z,7.45
2023-02-03T09:43:13.063Z,7.55
2023-02-03T09:45:41.466Z,10.70
2023-02-03T09:48:15.911Z,9.82
2023-02-03T09:50:46.690Z,10.98
2023-02-03T09:53:25.920Z,9.88
2023-02-03T09:55:56.299Z,8.52
2023-02-03T09:58:25.280Z,10.18
2023-02-03T10:00:55.570Z,9.75
2023-02-03T10:03:31.927Z,10.55
2023-02-03T10:06:21.959Z,11.23
2023-02-03T10:09:24.626Z,12.18
2023-02-03T10:12:16.299Z,13.02
2023-02-03T10:15:03.051Z,12.50
2023-02-03T10:17:34.263Z,13.45
2023-02-03T10:20:06.595Z,12.55
2023-02-03T10:22:41.971Z,12.07
2023-02-03T10:25:21.028Z,10.30
2023-02-03T10:27:51.528Z,10.13
2023-02-03T10:30:22.524Z,10.65
2023-02-03T10:32:54.738Z,11.85
2023-02-03T10:35:28.796Z,11.73
2023-02-03T10:37:59.710Z,12.07
2023-02-03T10:40:29.574Z,11.35
2023-02-03T10:43:18.369Z,11.57
2023-02-03T10:45:46.468Z,12.50
2023-02-03T10:48:18.469Z,12.13
2023-02-03T10:50:50.897Z,12.95
2023-02-03T10:53:24.968Z,11.63
2023-02-03T10:56:02.997Z,12.93
2023-02-03T10:58:34.468Z,12.50
2023-02-03T11:01:09.344Z,11.70
2023-02-03T11:03:38.219Z,10.15
2023-02-03T11:06:09.454Z,10.18
2023-02-03T11:08:38.978Z,10.40
2023-02-03T11:11:08.202Z,10.60
2023-02-03T11:13:37.721Z,9.38
2023-02-03T11:16:08.148Z,10.35
2023-02-03T11:18:55.911Z,10.15
2023-02-03T11:21:26.608Z,8.55
2023-02-03T11:23:58.124Z,8.73
2023-02-03T11:26:29.621Z,8.43
2023-02-03T11:29:01.317Z,7.93
2023-02-03T11:31:31.626Z,8.63
2023-02-03T11:34:02.637Z,9.27
2023-02-03T11:36:32.498Z,9.10
2023-02-03T11:39:37.089Z,8.32
2023-02-03T11:42:22.620Z,9.18
2023-02-03T11:44:53.079Z,8.88
2023-02-03T11:47:23.730Z,8.75
2023-02-03T11:50:19.850Z,8.80
2023-02-03T11:53:29.433Z,8.68
2023-02-03T11:56:18.938Z,8.00
2023-02-03T11:59:08.988Z,9.10
2023-02-03T12:02:05.107Z,23.23
2023-02-03T12:04:56.253Z,9.02
2023-02-03T12:07:49.232Z,8.63
2023-02-03T12:10:34.142Z,9.52
2023-02-03T12:13:10.720Z,8.63
2023-02-03T12:18:33.793Z,8.75
2023-02-03T12:21:20.187Z,8.27
2023-02-03T12:23:56.231Z,7.43
2023-02-03T12:26:26.973Z,6.35
2023-02-03T12:29:04.350Z,6.20
2023-02-03T12:31:39.141Z,6.43
2023-02-03T12:34:17.171Z,6.35
2023-02-03T12:36:50.649Z,7.75
2023-02-03T12:39:26.861Z,6.80
2023-02-03T12:42:02.182Z,6.95
2023-02-03T12:44:35.729Z,5.10
2023-02-03T12:47:07.989Z,7.25
2023-02-03T12:49:42.060Z,5.82
2023-02-03T12:52:19.188Z,4.65
2023-02-03T12:54:53.190Z,4.22
2023-02-03T12:57:26.451Z,4.97
2023-02-03T13:00:09.012Z,4.75
2023-02-03T13:02:47.430Z,4.05
2023-02-03T13:05:25.159Z,4.43
2023-02-03T13:08:00.215Z,7.63
2023-02-03T13:10:35.150Z,6.72
2023-02-03T13:13:07.957Z,6.68
2023-02-03T13:15:40.643Z,3.90
2023-02-03T13:18:17.409Z,4.82
2023-02-03T13:20:47.102Z,4.72
2023-02-03T13:23:16.170Z,3.70
2023-02-03T13:25:55.280Z,4.38
2023-02-03T13:28:38.123Z,4.10
2023-02-03T13:31:22.211Z,3.78
2023-02-03T13:34:09.631Z,4.20
2023-02-03T13:37:07.169Z,3.50
2023-02-03T13:42:25.615Z,3.53
2023-02-03T13:44:57.570Z,3.60
2023-02-03T13:47:29.181Z,3.40
2023-02-03T13:50:01.648Z,3.47
2023-02-03T13:52:35.782Z,2.92
2023-02-03T13:55:05.360Z,2.58
2023-02-03T13:57:35.437Z,3.22
2023-02-03T14:00:06.922Z,2.78
2023-02-03T14:02:52.168Z,2.50
2023-02-03T14:05:39.580Z,2.53
2023-02-03T14:08:52.888Z,2.83
2023-02-03T14:11:49.995Z,2.72
2023-02-03T14:14:46.177Z,2.03
2023-02-03T14:18:03.162Z,2.95
2023-02-03T14:20:53.703Z,2.72
2023-02-03T14:23:31.200Z,2.45
2023-02-03T14:26:00.996Z,2.20
2023-02-03T14:28:39.760Z,1.75
2023-02-03T14:31:18.458Z,2.22
2023-02-03T14:33:54.282Z,1.83
2023-02-03T14:36:39.551Z,1.73
2023-02-03T14:39:41.577Z,2.17
2023-02-03T14:42:19.077Z,2.03
2023-02-03T14:45:00.028Z,1.60
2023-02-03T14:47:44.550Z,1.88
2023-02-03T14:50:31.464Z,2.47
2023-02-03T14:53:14.921Z,2.38
2023-02-03T14:55:52.418Z,2.08
2023-02-03T14:58:34.181Z,2.22
2023-02-03T15:01:08.779Z,2.10
2023-02-03T15:03:41.992Z,2.80
2023-02-03T15:06:41.299Z,2.53
2023-02-03T15:09:23.588Z,1.83
2023-02-03T15:11:52.012Z,2.60
2023-02-03T15:14:26.188Z,2.20
2023-02-03T15:17:01.420Z,2.20
2023-02-03T15:19:33.106Z,2.05
2023-02-03T15:22:02.062Z,2.33
2023-02-03T15:24:36.080Z,2.05
2023-02-03T15:27:04.666Z,2.00
2023-02-03T15:29:34.826Z,2.15
2023-02-03T15:32:10.943Z,1.75
2023-02-03T15:34:43.672Z,2.40
2023-02-03T15:37:18.252Z,2.50
2023-02-03T15:39:56.431Z,1.90
2023-02-03T15:42:30.001Z,2.10
2023-02-03T15:45:02.580Z,1.60
2023-02-03T15:47:36.452Z,2.08
2023-02-03T15:50:16.281Z,1.88
2023-02-03T15:52:47.005Z,2.10
2023-02-03T15:55:21.238Z,2.58
2023-02-03T15:57:51.289Z,2.42
2023-02-03T16:00:34.114Z,2.15
2023-02-03T16:03:06.763Z,2.42
2023-02-03T16:05:37.556Z,3.55
2023-02-03T16:08:29.879Z,2.28
2023-02-03T16:10:58.243Z,2.40
2023-02-03T16:13:28.518Z,2.15
2023-02-03T16:16:08.646Z,1.80
2023-02-03T16:18:38.589Z,2.28
2023-02-03T16:21:06.902Z,2.42
2023-02-03T16:23:35.243Z,2.10
2023-02-03T16:26:05.264Z,2.10
2023-02-03T16:28:52.672Z,2.30
2023-02-03T16:31:40.643Z,2.60
2023-02-03T16:34:35.975Z,2.60
2023-02-03T16:37:31.569Z,2.65
2023-02-03T16:40:18.209Z,8.93
2023-02-03T16:43:04.901Z,4.00
2023-02-03T16:45:51.602Z,3.15
2023-02-03T16:48:38.462Z,2.85
2023-02-03T16:51:14.076Z,3.10
2023-02-03T16:53:43.943Z,2.67
2023-02-03T16:56:14.748Z,2.30
2023-02-03T16:58:43.021Z,3.22
2023-02-03T17:01:12.424Z,2.47
2023-02-03T17:03:40.948Z,2.35
2023-02-03T17:06:13.083Z,3.05
2023-02-03T17:08:42.201Z,3.33
2023-02-03T17:11:16.417Z,3.00
2023-02-03T17:13:45.932Z,3.13
2023-02-03T17:16:16.982Z,2.17
2023-02-03T17:18:46.878Z,2.95
2023-02-03T17:21:19.252Z,2.70
2023-02-03T17:23:47.829Z,3.00
2023-02-03T17:26:16.271Z,2.88
2023-02-03T17:28:44.969Z,3.03
2023-02-03T17:31:15.892Z,2.80
2023-02-03T17:33:45.713Z,2.97
2023-02-03T17:36:17.294Z,2.90
2023-02-03T17:55:23.290Z,3.92
2023-02-03T17:57:51.809Z,4.97
2023-02-03T18:00:20.638Z,5.40
2023-02-03T18:02:51.089Z,6.65
2023-02-03T18:05:19.713Z,7.28
2023-02-03T18:07:49.864Z,10.98
2023-02-03T18:10:18.840Z,15.27
2023-02-03T18:12:47.172Z,18.35
2023-02-03T18:15:15.475Z,10.32
2023-02-03T18:17:43.638Z,8.93
2023-02-03T18:20:14.085Z,8.35
2023-02-03T18:22:44.120Z,7.28
2023-02-03T18:25:17.308Z,12.10
2023-02-03T18:27:46.390Z,8.13
2023-02-03T18:30:15.610Z,8.45
2023-02-03T18:32:44.529Z,6.30
2023-02-03T18:35:17.044Z,5.43
2023-02-03T18:37:45.744Z,5.07
2023-02-03T18:40:15.669Z,5.53
2023-02-03T18:42:43.886Z,5.25
2023-02-03T18:45:12.388Z,5.43
2023-02-03T18:47:40.678Z,6.78
2023-02-03T18:50:09.598Z,6.15
2023-02-03T18:52:38.567Z,5.82
2023-02-03T18:55:07.470Z,5.53
2023-02-03T18:57:37.385Z,6.20
2023-02-03T19:00:06.604Z,5.63
2023-02-03T19:02:35.028Z,5.82
2023-02-03T19:05:04.730Z,6.22
2023-02-03T19:07:32.958Z,6.97
2023-02-03T19:10:01.884Z,6.45
2023-02-03T19:12:30.304Z,6.60
2023-02-03T19:15:03.076Z,7.10
2023-02-03T19:17:31.419Z,7.03
2023-02-03T19:19:59.674Z,6.18
2023-02-03T19:22:28.013Z,6.20
2023-02-03T19:24:56.625Z,6.47
2023-02-03T19:27:25.401Z,6.45
2023-02-03T19:29:53.655Z,6.32
2023-02-03T19:32:23.584Z,5.90
2023-02-03T19:34:52.007Z,5.78
2023-02-03T19:37:20.224Z,6.75
2023-02-03T19:39:50.973Z,5.03
2023-02-03T19:42:19.245Z,4.97
2023-02-03T19:44:47.942Z,13.70
2023-02-03T19:47:16.586Z,10.73
2023-02-03T19:49:46.164Z,5.70
2023-02-03T19:52:14.542Z,5.72
2023-02-03T19:54:44.237Z,4.60
2023-02-03T19:57:12.532Z,5.30
2023-02-03T19:59:40.880Z,4.38
2023-02-03T20:02:14.308Z,4.90
2023-02-03T20:04:44.534Z,5.00
2023-02-03T20:07:14.561Z,4.30
2023-02-03T20:09:43.287Z,4.25
2023-02-03T20:12:13.050Z,4.03
2023-02-03T20:14:41.467Z,4.03
2023-02-03T20:17:09.526Z,4.65
2023-02-03T20:19:37.859Z,4.25
2023-02-03T20:22:06.106Z,3.70
2023-02-03T20:24:36.611Z,4.10
2023-02-03T20:27:05.517Z,3.60
2023-02-03T20:29:34.547Z,4.13
2023-02-03T20:32:06.532Z,4.95
2023-02-03T20:34:35.136Z,6.68
2023-02-03T20:37:03.470Z,5.70
2023-02-03T20:39:31.981Z,7.20
2023-02-03T20:42:02.100Z,8.00
2023-02-03T20:44:31.276Z,11.27
2023-02-03T20:47:00.182Z,8.52
2023-02-03T20:49:28.805Z,7.03
2023-02-03T20:51:57.354Z,5.63
2023-02-03T20:54:26.180Z,8.20
2023-02-03T20:56:55.396Z,8.77
2023-02-03T20:59:25.370Z,8.30
2023-02-03T21:01:54.301Z,7.68
2023-02-03T21:04:43.928Z,8.52
2023-02-03T21:09:42.960Z,6.50
2023-02-03T21:12:12.576Z,5.70
2023-02-03T21:14:44.354Z,4.80
2023-02-03T21:17:20.409Z,4.05
2023-02-03T21:19:49.257Z,3.67
2023-02-03T21:22:21.626Z,4.55
2023-02-03T21:24:55.045Z,4.20
2023-02-03T21:27:29.142Z,3.28
2023-02-03T21:30:01.540Z,3.40
2023-02-03T21:32:36.971Z,4.22
2023-02-03T21:35:24.254Z,2.95
2023-02-03T21:38:02.074Z,3.20
2023-02-03T21:40:31.637Z,2.17
2023-02-03T21:43:00.763Z,2.90
2023-02-03T21:45:37.176Z,2.47
2023-02-03T21:48:27.234Z,2.42
2023-02-03T21:50:56.983Z,1.98
2023-02-03T21:53:28.421Z,2.60
2023-02-03T21:55:56.693Z,2.30
2023-02-03T21:58:29.275Z,2.80
2023-02-03T22:01:00.745Z,2.70
2023-02-03T22:03:30.871Z,2.30
2023-02-03T22:06:15.573Z,2.50
2023-02-03T22:08:45.791Z,2.97
2023-02-03T22:11:14.805Z,4.88
2023-02-03T22:13:43.353Z,3.50
2023-02-03T22:16:17.409Z,4.18
2023-02-03T22:18:46.439Z,3.17
2023-02-03T22:21:14.781Z,3.20
2023-02-03T22:23:43.222Z,2.97
2023-02-03T22:26:12.268Z,2.85
2023-02-03T22:28:42.041Z,2.97
2023-02-03T22:31:11.818Z,3.40
2023-02-03T22:33:42.196Z,3.03
2023-02-03T22:36:10.967Z,2.58
2023-02-03T22:38:40.061Z,2.20
2023-02-03T22:41:09.350Z,2.25
2023-02-03T22:43:37.373Z,2.25
2023-02-03T22:46:07.126Z,1.98
2023-02-03T22:48:35.401Z,2.20
2023-02-03T22:51:05.378Z,2.60
2023-02-03T22:53:33.569Z,2.80
2023-02-03T22:56:01.641Z,2.45
2023-02-03T22:58:29.842Z,2.65
2023-02-03T23:00:57.873Z,2.25
2023-02-03T23:03:26.131Z,2.35
2023-02-03T23:05:54.152Z,2.45
2023-02-03T23:08:23.727Z,2.50
2023-02-03T23:10:51.721Z,2.45
2023-02-03T23:13:19.862Z,2.92
2023-02-03T23:15:47.971Z,2.22
2023-02-03T23:18:16.287Z,2.22
2023-02-03T23:20:44.190Z,2.72
2023-02-03T23:23:12.151Z,2.78
2023-02-03T23:25:41.604Z,2.63
2023-02-03T23:28:09.591Z,2.28
2023-02-03T23:30:37.637Z,2.55
2023-02-03T23:33:05.845Z,2.70
2023-02-03T23:35:45.540Z,2.58
2023-02-03T23:38:14.547Z,3.03
2023-02-03T23:40:45.141Z,3.75
2023-02-03T23:43:13.260Z,7.63
2023-02-03T23:45:41.407Z,8.52
2023-02-03T23:48:09.564Z,4.00
2023-02-03T23:50:37.709Z,12.07
2023-02-03T23:53:05.892Z,11.40
2023-02-03T23:55:34.301Z,11.95
2023-02-03T23:58:05.276Z,5.00
